createdAt,value
2023-04-12T00:01:07.332Z,4.96
2023-04-12T00:03:34.917Z,4.92
2023-04-12T00:06:03.679Z,4.80
2023-04-12T00:08:33.939Z,4.88
2023-04-12T00:11:02.981Z,4.84
2023-04-12T00:13:30.645Z,4.81
2023-04-12T00:15:57.576Z,4.80
2023-04-12T00:18:25.903Z,4.79
2023-04-12T00:20:53.464Z,4.77
2023-04-12T00:23:20.907Z,4.69
2023-04-12T00:25:48.252Z,4.71
2023-04-12T00:28:18.857Z,4.69
2023-04-12T00:30:46.575Z,4.64
2023-04-12T00:33:13.581Z,4.66
2023-04-12T00:35:40.579Z,4.69
2023-04-12T00:38:11.028Z,4.69
2023-04-12T00:40:43.020Z,4.68
2023-04-12T00:43:19.008Z,4.69
2023-04-12T00:45:47.497Z,4.69
2023-04-12T00:48:16.461Z,4.77
2023-04-12T00:50:45.039Z,4.74
2023-04-12T00:53:14.483Z,4.80
2023-04-12T00:55:44.920Z,4.77
2023-04-12T00:58:12.430Z,4.78
2023-04-12T01:00:39.379Z,4.72
2023-04-12T01:03:08.683Z,4.65
2023-04-12T01:05:49.416Z,4.56
2023-04-12T01:08:49.121Z,4.44
2023-04-12T01:11:29.389Z,4.37
2023-04-12T01:14:07.929Z,4.30
2023-04-12T01:16:44.665Z,4.20
2023-04-12T01:19:31.786Z,4.14
2023-04-12T01:22:19.155Z,4.04
2023-04-12T01:25:13.217Z,4.00
2023-04-12T01:27:47.023Z,3.87
2023-04-12T01:30:18.280Z,3.86
2023-04-12T01:32:51.813Z,3.78
2023-04-12T01:35:21.933Z,3.71
2023-04-12T01:37:48.900Z,3.71
2023-04-12T01:40:16.318Z,3.65
2023-04-12T01:42:43.214Z,3.64
2023-04-12T01:45:10.818Z,3.68
2023-04-12T01:47:38.802Z,3.68
2023-04-12T01:50:08.647Z,3.77
2023-04-12T01:52:41.392Z,3.82
2023-04-12T01:55:10.717Z,3.87
2023-04-12T01:57:39.249Z,3.86
2023-04-12T02:00:11.086Z,3.78
2023-04-12T02:02:40.269Z,3.86
2023-04-12T02:05:09.777Z,3.87
2023-04-12T02:07:37.561Z,3.92
2023-04-12T02:10:04.877Z,4.04
2023-04-12T02:12:32.098Z,4.05
2023-04-12T02:14:59.008Z,4.07
2023-04-12T02:17:26.124Z,4.12
2023-04-12T02:19:53.199Z,4.12
2023-04-12T02:22:20.103Z,4.15
2023-04-12T02:24:48.032Z,4.15
2023-04-12T02:27:14.890Z,4.08
2023-04-12T02:29:41.757Z,4.12
2023-04-12T02:32:08.591Z,4.09
2023-04-12T02:34:36.899Z,4.00
2023-04-12T02:37:04.961Z,4.00
2023-04-12T02:39:32.530Z,3.98
2023-04-12T02:41:59.417Z,3.95
2023-04-12T02:44:26.339Z,3.93
2023-04-12T02:46:53.287Z,3.88
2023-04-12T02:49:20.352Z,3.79
2023-04-12T02:51:47.495Z,3.80
2023-04-12T02:54:14.732Z,3.75
2023-04-12T02:56:41.577Z,3.65
2023-04-12T02:59:08.560Z,3.65
2023-04-12T03:01:35.693Z,3.56
2023-04-12T03:04:02.735Z,3.53
2023-04-12T03:06:30.721Z,3.53
2023-04-12T03:08:58.340Z,3.49
2023-04-12T03:11:25.186Z,3.46
2023-04-12T03:13:52.844Z,3.43
2023-04-12T03:16:26.345Z,3.40
2023-04-12T03:18:53.314Z,3.31
2023-04-12T03:21:20.364Z,3.30
2023-04-12T03:23:47.229Z,3.26
2023-04-12T03:26:14.406Z,3.26
2023-04-12T03:28:41.661Z,3.19
2023-04-12T03:31:08.983Z,3.22
2023-04-12T03:33:36.243Z,3.18
2023-04-12T03:36:03.480Z,3.11
2023-04-12T03:38:30.700Z,3.07
2023-04-12T03:40:57.620Z,3.09
2023-04-12T03:43:24.478Z,3.06
2023-04-12T03:45:51.720Z,3.03
2023-04-12T03:48:18.674Z,2.91
2023-04-12T03:50:45.727Z,3.01
2023-04-12T03:53:12.887Z,2.96
2023-04-12T03:55:39.790Z,2.96
2023-04-12T03:58:06.865Z,2.95
2023-04-12T04:00:34.037Z,2.89
2023-04-12T04:03:03.775Z,2.93
2023-04-12T04:05:31.596Z,2.92
2023-04-12T04:08:02.826Z,2.89
2023-04-12T04:10:30.088Z,2.86
2023-04-12T04:12:57.041Z,2.85
2023-04-12T04:15:26.092Z,2.83
2023-04-12T04:17:53.076Z,2.81
2023-04-12T04:20:20.800Z,2.79
2023-04-12T04:22:50.345Z,2.76
2023-04-12T04:25:17.253Z,2.77
2023-04-12T04:27:47.386Z,2.77
2023-04-12T04:30:15.543Z,2.75
2023-04-12T04:32:43.425Z,2.74
2023-04-12T04:35:10.393Z,2.71
2023-04-12T04:37:37.383Z,2.69
2023-04-12T04:40:24.396Z,2.73
2023-04-12T04:42:58.094Z,2.70
2023-04-12T04:45:27.068Z,2.65
2023-04-12T04:47:57.264Z,2.65
2023-04-12T04:50:26.920Z,2.65
2023-04-12T04:52:54.160Z,2.66
2023-04-12T04:55:28.115Z,2.65
2023-04-12T04:57:54.968Z,2.63
2023-04-12T05:00:22.072Z,2.62
2023-04-12T05:02:49.040Z,2.62
2023-04-12T05:05:16.262Z,2.62
2023-04-12T05:07:43.753Z,2.62
2023-04-12T05:10:11.784Z,2.63
2023-04-12T05:12:38.826Z,2.59
2023-04-12T05:15:11.587Z,2.59
2023-04-12T05:17:39.095Z,2.58
2023-04-12T05:20:08.628Z,2.60
2023-04-12T05:22:35.935Z,2.54
2023-04-12T05:25:04.335Z,2.54
2023-04-12T05:27:31.474Z,2.54
2023-04-12T05:29:58.594Z,2.56
2023-04-12T05:32:26.410Z,2.52
2023-04-12T05:34:53.385Z,2.54
2023-04-12T05:37:20.649Z,2.54
2023-04-12T05:39:47.505Z,2.51
2023-04-12T05:42:14.361Z,2.51
2023-04-12T05:44:41.812Z,2.54
2023-04-12T05:47:08.728Z,2.57
2023-04-12T05:49:35.803Z,2.61
2023-04-12T05:52:03.902Z,2.64
2023-04-12T05:54:31.130Z,2.76
2023-04-12T05:56:58.077Z,2.88
2023-04-12T05:59:24.965Z,3.06
2023-04-12T06:01:51.892Z,3.21
2023-04-12T06:04:19.045Z,3.39
2023-04-12T06:06:46.126Z,3.50
2023-04-12T06:09:13.465Z,3.69
2023-04-12T06:11:40.408Z,3.83
2023-04-12T06:14:08.040Z,3.98
2023-04-12T06:16:36.289Z,4.19
2023-04-12T06:19:03.325Z,4.29
2023-04-12T06:21:30.306Z,4.37
2023-04-12T06:23:57.272Z,4.44
2023-04-12T06:26:24.502Z,4.67
2023-04-12T06:28:54.598Z,4.91
2023-04-12T06:31:21.892Z,5.10
2023-04-12T06:33:50.574Z,5.24
2023-04-12T06:36:17.812Z,5.38
2023-04-12T06:38:44.766Z,5.49
2023-04-12T06:41:12.205Z,5.52
2023-04-12T06:43:39.119Z,5.62
2023-04-12T06:46:06.625Z,5.82
2023-04-12T06:48:33.776Z,5.80
2023-04-12T06:51:00.719Z,5.74
2023-04-12T06:53:27.648Z,5.80
2023-04-12T06:55:54.584Z,5.77
2023-04-12T06:58:21.477Z,5.90
2023-04-12T07:00:48.498Z,5.94
2023-04-12T07:03:15.629Z,6.11
2023-04-12T07:05:47.597Z,5.95
2023-04-12T07:08:14.536Z,6.11
2023-04-12T07:10:41.877Z,6.26
2023-04-12T07:13:08.788Z,6.26
2023-04-12T07:15:35.745Z,6.25
2023-04-12T07:18:02.726Z,6.32
2023-04-12T07:20:29.671Z,6.38
2023-04-12T07:22:56.907Z,6.46
2023-04-12T07:25:23.857Z,6.43
2023-04-12T07:27:51.782Z,6.59
2023-04-12T07:30:19.102Z,6.59
2023-04-12T07:32:46.249Z,6.75
2023-04-12T07:35:13.350Z,6.86
2023-04-12T07:37:40.526Z,6.91
2023-04-12T07:40:08.261Z,7.06
2023-04-12T07:42:35.162Z,7.15
2023-04-12T07:45:02.090Z,7.37
2023-04-12T07:47:29.170Z,7.50
2023-04-12T07:49:57.696Z,7.67
2023-04-12T07:52:25.458Z,7.83
2023-04-12T07:54:52.320Z,7.92
2023-04-12T07:57:19.159Z,8.04
2023-04-12T07:59:46.029Z,8.19
2023-04-12T08:02:13.257Z,8.33
2023-04-12T08:04:44.460Z,8.47
2023-04-12T08:07:11.732Z,8.66
2023-04-12T08:09:39.025Z,8.77
2023-04-12T08:12:06.158Z,8.82
2023-04-12T08:14:33.061Z,9.01
2023-04-12T08:16:59.934Z,8.97
2023-04-12T08:19:27.493Z,9.06
2023-04-12T08:21:54.834Z,9.11
2023-04-12T08:24:21.788Z,9.21
2023-04-12T08:26:48.699Z,9.11
2023-04-12T08:29:16.111Z,9.05
2023-04-12T08:31:43.222Z,9.09
2023-04-12T08:34:10.271Z,9.05
2023-04-12T08:36:37.203Z,9.10
2023-04-12T08:39:04.246Z,9.22
2023-04-12T08:41:31.586Z,9.27
2023-04-12T08:43:59.971Z,9.40
2023-04-12T08:46:28.450Z,9.40
2023-04-12T08:48:55.607Z,9.40
2023-04-12T08:51:23.130Z,9.26
2023-04-12T08:53:51.210Z,9.16
2023-04-12T08:56:19.444Z,9.22
2023-04-12T08:58:51.480Z,9.27
2023-04-12T09:01:21.220Z,9.29
2023-04-12T09:03:48.494Z,9.28
2023-04-12T09:06:15.948Z,9.06
2023-04-12T09:08:57.136Z,8.74
2023-04-12T09:11:27.529Z,8.78
2023-04-12T09:13:58.949Z,8.70
2023-04-12T09:16:41.523Z,8.65
2023-04-12T09:19:10.109Z,8.64
2023-04-12T09:21:37.401Z,8.59
2023-04-12T09:24:13.362Z,8.52
2023-04-12T09:26:41.054Z,8.40
2023-04-12T09:29:24.937Z,8.24
2023-04-12T09:31:58.504Z,8.16
2023-04-12T09:34:26.644Z,8.08
2023-04-12T09:36:54.812Z,7.94
2023-04-12T09:39:34.538Z,8.00
2023-04-12T09:42:25.445Z,7.98
2023-04-12T09:44:58.950Z,8.04
2023-04-12T09:47:40.563Z,8.11
2023-04-12T09:50:10.231Z,8.29
2023-04-12T09:52:41.045Z,8.37
2023-04-12T09:55:11.961Z,8.43
2023-04-12T09:57:42.429Z,8.59
2023-04-12T10:00:18.882Z,8.70
2023-04-12T10:02:52.779Z,8.90
2023-04-12T10:05:28.367Z,9.05
2023-04-12T10:07:57.011Z,9.14
2023-04-12T10:10:24.336Z,9.10
2023-04-12T10:12:51.878Z,9.12
2023-04-12T10:15:21.461Z,9.13
2023-04-12T10:17:52.760Z,8.97
2023-04-12T10:20:23.354Z,8.73
2023-04-12T10:22:53.542Z,8.75
2023-04-12T10:25:24.046Z,8.62
2023-04-12T10:27:51.577Z,8.45
2023-04-12T10:30:38.748Z,8.32
2023-04-12T10:33:05.811Z,7.94
2023-04-12T10:36:01.150Z,7.87
2023-04-12T10:38:32.979Z,7.74
2023-04-12T10:41:16.006Z,7.76
2023-04-12T10:43:46.383Z,7.73
2023-04-12T10:46:38.881Z,7.99
2023-04-12T10:49:14.641Z,8.09
2023-04-12T10:52:02.074Z,8.27
2023-04-12T10:54:29.817Z,8.51
2023-04-12T10:56:57.700Z,8.67
2023-04-12T10:59:31.426Z,8.73
2023-04-12T11:02:12.765Z,8.87
2023-04-12T11:05:10.540Z,8.91
2023-04-12T11:07:43.246Z,8.89
2023-04-12T11:10:20.303Z,8.74
2023-04-12T11:12:54.888Z,8.64
2023-04-12T11:15:25.989Z,8.62
2023-04-12T11:17:57.959Z,8.35
2023-04-12T11:20:30.143Z,8.14
2023-04-12T11:22:57.394Z,8.17
2023-04-12T11:25:24.873Z,8.04
2023-04-12T11:27:55.005Z,8.05
2023-04-12T11:30:23.764Z,8.13
2023-04-12T11:32:50.931Z,8.05
2023-04-12T11:35:20.679Z,8.23
2023-04-12T11:37:48.095Z,8.44
2023-04-12T11:40:15.299Z,8.48
2023-04-12T11:42:42.737Z,8.49
2023-04-12T11:45:17.200Z,8.54
2023-04-12T11:47:46.837Z,8.65
2023-04-12T11:50:13.939Z,8.65
2023-04-12T11:52:41.513Z,8.81
2023-04-12T11:55:11.438Z,8.90
2023-04-12T11:57:40.048Z,9.00
2023-04-12T12:00:07.864Z,8.90
2023-04-12T12:02:43.690Z,8.85
2023-04-12T12:05:17.048Z,8.57
2023-04-12T12:07:44.402Z,8.46
2023-04-12T12:10:16.404Z,8.43
2023-04-12T12:12:48.329Z,8.24
2023-04-12T12:15:16.811Z,8.03
2023-04-12T12:17:43.999Z,8.04
2023-04-12T12:20:21.862Z,7.85
2023-04-12T12:22:49.486Z,7.84
2023-04-12T12:25:19.352Z,7.71
2023-04-12T12:27:50.629Z,7.86
2023-04-12T12:30:20.548Z,7.98
2023-04-12T12:32:52.642Z,8.13
2023-04-12T12:35:19.711Z,8.26
2023-04-12T12:37:52.801Z,8.22
2023-04-12T12:40:31.762Z,8.45
2023-04-12T12:42:58.899Z,8.45
2023-04-12T12:45:28.406Z,8.57
2023-04-12T12:47:58.927Z,8.63
2023-04-12T12:50:34.537Z,8.82
2023-04-12T12:53:02.514Z,8.90
2023-04-12T12:55:31.341Z,9.00
2023-04-12T13:00:30.025Z,9.16
2023-04-12T13:02:57.285Z,9.27
2023-04-12T13:05:24.698Z,9.29
2023-04-12T13:07:51.592Z,9.30
2023-04-12T13:10:18.488Z,9.24
2023-04-12T13:12:46.250Z,9.17
2023-04-12T13:17:44.165Z,9.02
2023-04-12T13:20:11.355Z,8.90
2023-04-12T13:22:38.337Z,8.76
2023-04-12T13:25:05.859Z,8.70
2023-04-12T13:27:33.198Z,8.59
2023-04-12T13:30:00.505Z,8.54
2023-04-12T13:32:27.700Z,8.44
2023-04-12T13:34:54.760Z,8.39
2023-04-12T13:37:21.679Z,8.25
2023-04-12T13:39:50.567Z,8.18
2023-04-12T13:42:17.528Z,7.97
2023-04-12T13:44:44.598Z,7.73
2023-04-12T13:47:11.694Z,7.63
2023-04-12T13:49:38.754Z,7.52
2023-04-12T13:52:06.035Z,7.51
2023-04-12T13:54:33.309Z,7.34
2023-04-12T13:57:00.475Z,7.36
2023-04-12T13:59:27.375Z,7.30
2023-04-12T14:01:54.824Z,7.33
2023-04-12T14:04:22.307Z,7.36
2023-04-12T14:06:49.791Z,7.39
2023-04-12T14:09:30.289Z,7.44
2023-04-12T14:11:59.210Z,7.49
2023-04-12T14:14:27.729Z,7.58
2023-04-12T14:16:59.146Z,7.66
2023-04-12T14:19:26.706Z,7.78
2023-04-12T14:21:53.937Z,7.88
2023-04-12T14:24:22.206Z,8.06
2023-04-12T14:26:50.430Z,8.14
2023-04-12T14:29:17.817Z,8.33
2023-04-12T14:31:44.932Z,8.50
2023-04-12T14:34:13.758Z,8.73
2023-04-12T14:36:41.188Z,8.73
2023-04-12T14:39:11.640Z,8.81
2023-04-12T14:41:40.769Z,8.85
2023-04-12T14:44:07.629Z,8.82
2023-04-12T14:46:34.569Z,8.65
2023-04-12T14:49:01.782Z,8.78
2023-04-12T14:51:29.856Z,8.66
2023-04-12T14:53:57.581Z,8.54
2023-04-12T14:56:28.855Z,8.34
2023-04-12T14:58:57.578Z,8.25
2023-04-12T15:01:26.099Z,8.30
2023-04-12T15:03:53.878Z,8.25
2023-04-12T15:06:26.198Z,8.28
2023-04-12T15:08:57.561Z,8.31
2023-04-12T15:11:27.470Z,8.57
2023-04-12T15:13:55.677Z,8.64
2023-04-12T15:16:23.431Z,8.70
2023-04-12T15:18:52.052Z,8.66
2023-04-12T15:21:19.504Z,8.73
2023-04-12T15:23:47.556Z,8.60
2023-04-12T15:26:14.636Z,8.46
2023-04-12T15:28:42.497Z,8.36
2023-04-12T15:31:09.850Z,8.22
2023-04-12T15:33:37.523Z,8.35
2023-04-12T15:36:05.743Z,8.25
2023-04-12T15:38:32.758Z,8.24
2023-04-12T15:41:01.710Z,8.16
2023-04-12T15:43:29.242Z,8.19
2023-04-12T15:45:57.286Z,8.12
2023-04-12T15:48:25.960Z,8.07
2023-04-12T15:50:56.026Z,8.28
2023-04-12T15:53:27.749Z,8.37
2023-04-12T15:55:55.368Z,8.46
2023-04-12T15:58:27.507Z,8.50
2023-04-12T16:00:54.983Z,8.54
2023-04-12T16:03:27.017Z,8.65
2023-04-12T16:05:54.456Z,8.49
2023-04-12T16:08:22.869Z,8.55
2023-04-12T16:10:51.581Z,8.64
2023-04-12T16:13:18.910Z,8.65
2023-04-12T16:15:47.374Z,8.65
2023-04-12T16:18:14.616Z,8.62
2023-04-12T16:20:42.174Z,8.56
2023-04-12T16:23:10.952Z,8.57
2023-04-12T16:25:38.714Z,8.52
2023-04-12T16:28:08.019Z,8.46
2023-04-12T16:30:36.219Z,8.51
2023-04-12T16:33:04.420Z,8.55
2023-04-12T16:35:32.826Z,8.65
2023-04-12T16:38:03.350Z,8.71
2023-04-12T16:40:31.166Z,8.74
2023-04-12T16:42:58.633Z,8.72
2023-04-12T16:45:26.692Z,8.74
2023-04-12T16:47:54.650Z,8.76
2023-04-12T16:50:24.153Z,8.56
2023-04-12T16:52:51.913Z,8.59
2023-04-12T16:55:19.034Z,8.55
2023-04-12T16:57:46.558Z,8.54
2023-04-12T17:00:23.008Z,8.53
2023-04-12T17:02:52.619Z,8.55
2023-04-12T17:05:22.161Z,8.55
2023-04-12T17:07:54.905Z,8.51
2023-04-12T17:10:24.825Z,8.44
2023-04-12T17:12:56.055Z,8.33
2023-04-12T17:15:23.754Z,8.42
2023-04-12T17:18:03.290Z,8.42
2023-04-12T17:20:32.273Z,8.36
2023-04-12T17:23:00.892Z,8.39
2023-04-12T17:25:33.567Z,8.39
2023-04-12T17:28:12.090Z,8.37
2023-04-12T17:30:40.805Z,8.39
2023-04-12T17:33:09.136Z,8.33
2023-04-12T17:35:37.630Z,8.31
2023-04-12T17:38:05.322Z,8.30
2023-04-12T17:40:36.281Z,8.32
2023-04-12T17:43:04.435Z,8.27
2023-04-12T17:45:32.446Z,8.18
2023-04-12T17:48:00.124Z,8.28
2023-04-12T17:50:27.411Z,8.27
2023-04-12T17:52:56.764Z,8.22
2023-04-12T17:55:26.947Z,8.16
2023-04-12T17:57:54.540Z,8.10
2023-04-12T18:00:23.955Z,8.22
2023-04-12T18:02:51.749Z,8.10
2023-04-12T18:05:19.243Z,8.03
2023-04-12T18:07:46.292Z,8.00
2023-04-12T18:10:16.285Z,7.95
2023-04-12T18:12:45.413Z,7.90
2023-04-12T18:15:12.947Z,7.84
2023-04-12T18:17:40.114Z,7.76
2023-04-12T18:20:10.964Z,7.67
2023-04-12T18:22:39.324Z,7.57
2023-04-12T18:25:08.445Z,7.57
2023-04-12T18:27:36.056Z,7.54
2023-04-12T18:30:03.626Z,7.47
2023-04-12T18:32:30.994Z,7.38
2023-04-12T18:34:58.164Z,7.27
2023-04-12T18:37:25.212Z,7.21
2023-04-12T18:39:53.460Z,7.20
2023-04-12T18:42:20.611Z,7.18
2023-04-12T18:44:47.803Z,7.08
2023-04-12T18:47:14.729Z,7.09
2023-04-12T18:49:41.721Z,7.08
2023-04-12T18:52:08.927Z,7.00
2023-04-12T18:54:35.973Z,7.02
2023-04-12T18:57:03.919Z,6.97
2023-04-12T18:59:31.414Z,6.97
2023-04-12T19:01:58.562Z,6.90
2023-04-12T19:04:25.697Z,6.88
2023-04-12T19:06:53.376Z,6.89
2023-04-12T19:09:20.704Z,6.85
2023-04-12T19:11:47.772Z,6.82
2023-04-12T19:14:14.999Z,6.76
2023-04-12T19:16:42.093Z,6.77
2023-04-12T19:19:09.098Z,6.71
2023-04-12T19:21:36.543Z,6.68
2023-04-12T19:24:03.985Z,6.69
2023-04-12T19:26:32.722Z,6.64
2023-04-12T19:28:59.946Z,6.67
2023-04-12T19:31:27.327Z,6.65
2023-04-12T19:33:56.154Z,6.50
2023-04-12T19:36:26.153Z,6.53
2023-04-12T19:38:53.233Z,6.44
2023-04-12T19:41:20.967Z,6.35
2023-04-12T19:43:48.086Z,6.34
2023-04-12T19:46:16.405Z,6.21
2023-04-12T19:48:43.510Z,6.21
2023-04-12T19:51:10.577Z,6.16
2023-04-12T19:53:37.831Z,6.15
2023-04-12T19:56:05.375Z,6.00
2023-04-12T19:58:32.541Z,6.06
2023-04-12T20:01:03.064Z,6.00
2023-04-12T20:03:30.696Z,5.94
2023-04-12T20:06:04.403Z,5.94
2023-04-12T20:08:32.338Z,5.98
2023-04-12T20:11:00.747Z,5.98
2023-04-12T20:13:29.015Z,6.00
2023-04-12T20:15:56.727Z,5.94
2023-04-12T20:18:24.774Z,5.99
2023-04-12T20:20:53.666Z,6.02
2023-04-12T20:23:20.848Z,6.04
2023-04-12T20:25:49.537Z,6.03
2023-04-12T20:28:16.984Z,6.03
2023-04-12T20:30:47.271Z,6.04
2023-04-12T20:33:15.552Z,6.04
2023-04-12T20:35:42.919Z,6.08
2023-04-12T20:38:10.307Z,6.03
2023-04-12T20:40:38.234Z,6.04
2023-04-12T20:43:06.309Z,6.02
2023-04-12T20:45:35.702Z,5.97
2023-04-12T20:48:04.410Z,5.90
2023-04-12T20:50:34.643Z,5.94
2023-04-12T20:53:02.922Z,5.98
2023-04-12T20:55:33.158Z,6.00
2023-04-12T20:58:01.549Z,6.00
2023-04-12T21:00:29.923Z,5.96
2023-04-12T21:02:58.439Z,5.98
2023-04-12T21:05:27.649Z,5.96
2023-04-12T21:07:55.129Z,5.94
2023-04-12T21:10:22.490Z,5.89
2023-04-12T21:12:50.401Z,5.82
2023-04-12T21:15:22.235Z,5.78
2023-04-12T21:17:50.942Z,5.73
2023-04-12T21:20:18.771Z,5.66
2023-04-12T21:22:48.027Z,5.75
2023-04-12T21:25:17.050Z,5.70
2023-04-12T21:27:46.609Z,5.77
2023-04-12T21:30:14.625Z,5.74
2023-04-12T21:32:42.347Z,5.76
2023-04-12T21:35:11.394Z,5.77
2023-04-12T21:37:39.599Z,5.76
2023-04-12T21:40:12.967Z,5.81
2023-04-12T21:42:41.261Z,5.73
2023-04-12T21:45:10.062Z,5.79
2023-04-12T21:47:39.889Z,5.77
2023-04-12T21:50:10.993Z,5.81
2023-04-12T21:52:38.691Z,5.72
2023-04-12T21:55:06.170Z,5.77
2023-04-12T21:57:34.545Z,5.77
2023-04-12T22:00:05.497Z,5.80
2023-04-12T22:02:32.744Z,5.80
2023-04-12T22:04:59.803Z,5.81
2023-04-12T22:07:26.963Z,5.79
2023-04-12T22:09:53.989Z,5.87
2023-04-12T22:12:21.438Z,5.83
2023-04-12T22:14:50.140Z,5.89
2023-04-12T22:17:18.978Z,5.86
2023-04-12T22:19:46.342Z,5.89
2023-04-12T22:22:15.671Z,5.90
2023-04-12T22:24:42.849Z,5.86
2023-04-12T22:27:09.787Z,5.94
2023-04-12T22:29:38.002Z,5.94
2023-04-12T22:32:05.201Z,5.97
2023-04-12T22:34:32.716Z,5.96
2023-04-12T22:36:59.626Z,5.99
2023-04-12T22:39:27.142Z,6.02
2023-04-12T22:41:57.651Z,6.01
2023-04-12T22:44:26.468Z,6.02
2023-04-12T22:46:56.926Z,6.06
2023-04-12T22:49:28.533Z,6.03
2023-04-12T22:51:56.066Z,5.99
2023-04-12T22:54:24.951Z,5.91
2023-04-12T22:56:52.228Z,5.92
2023-04-12T22:59:20.367Z,5.89
2023-04-12T23:01:47.760Z,5.89
2023-04-12T23:04:16.125Z,5.86
2023-04-12T23:06:44.277Z,5.80
2023-04-12T23:09:12.713Z,5.83
2023-04-12T23:11:42.248Z,5.83
2023-04-12T23:14:10.083Z,5.86
2023-04-12T23:16:42.644Z,5.86
2023-04-12T23:19:12.793Z,5.80
2023-04-12T23:21:40.830Z,5.83
2023-04-12T23:24:08.689Z,5.83
2023-04-12T23:26:36.170Z,5.83
2023-04-12T23:29:04.607Z,5.78
2023-04-12T23:31:32.539Z,5.84
2023-04-12T23:34:03.588Z,5.85
2023-04-12T23:36:30.912Z,5.90
2023-04-12T23:39:00.902Z,5.85
2023-04-12T23:41:28.082Z,5.91
2023-04-12T23:43:55.337Z,5.89
2023-04-12T23:46:22.763Z,5.97
2023-04-12T23:48:49.772Z,6.00
2023-04-12T23:51:17.253Z,6.03
2023-04-12T23:53:44.171Z,6.02
2023-04-12T23:56:11.427Z,6.08
2023-04-12T23:58:38.703Z,6.13
